sensor_id;sensor_type;location;lat;lon;timestamp;P1;durP1;ratioP1;P2;durP2;ratioP2
43664;SDS011;29263;48.172;11.484;2024-02-28T00:02:00;17.80;;;10.53;;
43664;SDS011;29263;48.172;11.484;2024-02-28T00:04:26;17.90;;;11.17;;
43664;SDS011;29263;48.172;11.484;2024-02-28T00:06:51;19.07;;;11.33;;
43664;SDS011;29263;48.172;11.484;2024-02-28T00:09:17;18.40;;;10.80;;
43664;SDS011;29263;48.172;11.484;2024-02-28T00:11:43;16.13;;;9.57;;
43664;SDS011;29263;48.172;11.484;2024-02-28T00:14:10;17.77;;;10.73;;
43664;SDS011;29263;48.172;11.484;2024-02-28T00:16:42;17.45;;;9.60;;
43664;SDS011;29263;48.172;11.484;2024-02-28T00:19:08;20.10;;;10.82;;
43664;SDS011;29263;48.172;11.484;2024-02-28T00:21:34;16.97;;;9.77;;
43664;SDS011;29263;48.172;11.484;2024-02-28T00:24:00;16.03;;;9.23;;
43664;SDS011;29263;48.172;11.484;2024-02-28T00:26:25;17.57;;;11.03;;
43664;SDS011;29263;48.172;11.484;2024-02-28T00:28:51;16.30;;;10.13;;
43664;SDS011;29263;48.172;11.484;2024-02-28T00:31:16;17.73;;;11.47;;
43664;SDS011;29263;48.172;11.484;2024-02-28T00:33:42;16.37;;;9.93;;
43664;SDS011;29263;48.172;11.484;2024-02-28T00:36:07;14.97;;;9.83;;
43664;SDS011;29263;48.172;11.484;2024-02-28T00:38:33;18.57;;;10.83;;
43664;SDS011;29263;48.172;11.484;2024-02-28T00:40:59;19.67;;;11.63;;
43664;SDS011;29263;48.172;11.484;2024-02-28T00:43:24;18.87;;;10.77;;
43664;SDS011;29263;48.172;11.484;2024-02-28T00:45:50;18.83;;;10.63;;
43664;SDS011;29263;48.172;11.484;2024-02-28T00:48:16;17.40;;;10.03;;
43664;SDS011;29263;48.172;11.484;2024-02-28T00:50:41;19.80;;;10.87;;
43664;SDS011;29263;48.172;11.484;2024-02-28T00:53:07;16.00;;;9.50;;
43664;SDS011;29263;48.172;11.484;2024-02-28T00:55:33;17.13;;;9.93;;
43664;SDS011;29263;48.172;11.484;2024-02-28T00:57:59;18.27;;;10.70;;
43664;SDS011;29263;48.172;11.484;2024-02-28T01:00:24;17.03;;;11.00;;
43664;SDS011;29263;48.172;11.484;2024-02-28T01:02:50;20.03;;;10.87;;
43664;SDS011;29263;48.172;11.484;2024-02-28T01:05:15;16.33;;;9.97;;
43664;SDS011;29263;48.172;11.484;2024-02-28T01:07:41;16.90;;;9.97;;
43664;SDS011;29263;48.172;11.484;2024-02-28T01:10:07;16.80;;;9.50;;
43664;SDS011;29263;48.172;11.484;2024-02-28T01:12:32;18.07;;;11.23;;
43664;SDS011;29263;48.172;11.484;2024-02-28T01:14:58;16.23;;;10.17;;
43664;SDS011;29263;48.172;11.484;2024-02-28T01:17:24;18.23;;;9.43;;
43664;SDS011;29263;48.172;11.484;2024-02-28T01:19:49;18.53;;;10.93;;
43664;SDS011;29263;48.172;11.484;2024-02-28T01:22:15;16.67;;;10.77;;
43664;SDS011;29263;48.172;11.484;2024-02-28T01:24:41;16.77;;;10.70;;
43664;SDS011;29263;48.172;11.484;2024-02-28T01:27:06;18.57;;;10.23;;
43664;SDS011;29263;48.172;11.484;2024-02-28T01:29:32;18.10;;;10.70;;
43664;SDS011;29263;48.172;11.484;2024-02-28T01:31:57;19.67;;;10.97;;
43664;SDS011;29263;48.172;11.484;2024-02-28T01:34:23;17.43;;;10.63;;
43664;SDS011;29263;48.172;11.484;2024-02-28T01:36:48;19.50;;;11.57;;
43664;SDS011;29263;48.172;11.484;2024-02-28T01:39:14;18.13;;;10.50;;
43664;SDS011;29263;48.172;11.484;2024-02-28T01:41:40;20.57;;;10.10;;
43664;SDS011;29263;48.172;11.484;2024-02-28T01:44:08;17.23;;;10.33;;
43664;SDS011;29263;48.172;11.484;2024-02-28T01:46:34;19.77;;;11.87;;
43664;SDS011;29263;48.172;11.484;2024-02-28T01:49:00;20.53;;;11.57;;
43664;SDS011;29263;48.172;11.484;2024-02-28T01:51:26;16.07;;;10.30;;
43664;SDS011;29263;48.172;11.484;2024-02-28T01:53:53;15.47;;;9.43;;
43664;SDS011;29263;48.172;11.484;2024-02-28T01:56:20;18.33;;;10.77;;
43664;SDS011;29263;48.172;11.484;2024-02-28T01:58:48;17.00;;;10.67;;
43664;SDS011;29263;48.172;11.484;2024-02-28T02:01:14;22.70;;;11.93;;
43664;SDS011;29263;48.172;11.484;2024-02-28T02:03:44;17.30;;;11.50;;
43664;SDS011;29263;48.172;11.484;2024-02-28T02:06:09;18.07;;;11.17;;
43664;SDS011;29263;48.172;11.484;2024-02-28T02:08:36;21.53;;;10.97;;
43664;SDS011;29263;48.172;11.484;2024-02-28T02:11:02;20.53;;;11.90;;
43664;SDS011;29263;48.172;11.484;2024-02-28T02:13:27;20.40;;;11.50;;
43664;SDS011;29263;48.172;11.484;2024-02-28T02:15:53;21.97;;;11.90;;
43664;SDS011;29263;48.172;11.484;2024-02-28T02:18:19;18.47;;;11.63;;
43664;SDS011;29263;48.172;11.484;2024-02-28T02:20:46;20.83;;;11.93;;
43664;SDS011;29263;48.172;11.484;2024-02-28T02:23:14;26.77;;;13.47;;
43664;SDS011;29263;48.172;11.484;2024-02-28T02:25:44;23.40;;;12.37;;
43664;SDS011;29263;48.172;11.484;2024-02-28T02:28:13;19.87;;;12.07;;
43664;SDS011;29263;48.172;11.484;2024-02-28T02:30:39;23.57;;;12.73;;
43664;SDS011;29263;48.172;11.484;2024-02-28T02:33:06;19.40;;;12.13;;
43664;SDS011;29263;48.172;11.484;2024-02-28T02:35:35;20.80;;;12.13;;
43664;SDS011;29263;48.172;11.484;2024-02-28T02:38:01;23.25;;;13.02;;
43664;SDS011;29263;48.172;11.484;2024-02-28T02:40:27;20.90;;;12.10;;
43664;SDS011;29263;48.172;11.484;2024-02-28T02:42:52;21.23;;;11.70;;
43664;SDS011;29263;48.172;11.484;2024-02-28T02:45:18;25.10;;;12.97;;
43664;SDS011;29263;48.172;11.484;2024-02-28T02:47:43;24.53;;;12.97;;
43664;SDS011;29263;48.172;11.484;2024-02-28T02:50:09;23.93;;;13.37;;
43664;SDS011;29263;48.172;11.484;2024-02-28T02:52:35;21.77;;;13.70;;
43664;SDS011;29263;48.172;11.484;2024-02-28T02:55:01;23.17;;;12.70;;
43664;SDS011;29263;48.172;11.484;2024-02-28T02:57:27;24.93;;;13.70;;
43664;SDS011;29263;48.172;11.484;2024-02-28T02:59:53;21.90;;;12.10;;
43664;SDS011;29263;48.172;11.484;2024-02-28T03:02:18;22.13;;;12.43;;
43664;SDS011;29263;48.172;11.484;2024-02-28T03:04:44;26.70;;;13.33;;
43664;SDS011;29263;48.172;11.484;2024-02-28T03:07:09;26.10;;;13.30;;
43664;SDS011;29263;48.172;11.484;2024-02-28T03:09:35;22.30;;;12.60;;
43664;SDS011;29263;48.172;11.484;2024-02-28T03:12:00;21.77;;;12.93;;
43664;SDS011;29263;48.172;11.484;2024-02-28T03:14:26;28.37;;;13.67;;
43664;SDS011;29263;48.172;11.484;2024-02-28T03:16:52;27.27;;;13.93;;
43664;SDS011;29263;48.172;11.484;2024-02-28T03:19:18;22.60;;;12.93;;
43664;SDS011;29263;48.172;11.484;2024-02-28T03:21:44;20.30;;;11.73;;
43664;SDS011;29263;48.172;11.484;2024-02-28T03:24:10;24.07;;;13.50;;
43664;SDS011;29263;48.172;11.484;2024-02-28T03:26:36;22.73;;;14.57;;
43664;SDS011;29263;48.172;11.484;2024-02-28T03:29:02;26.13;;;13.73;;
43664;SDS011;29263;48.172;11.484;2024-02-28T03:31:27;26.27;;;13.07;;
43664;SDS011;29263;48.172;11.484;2024-02-28T03:33:53;27.03;;;14.17;;
43664;SDS011;29263;48.172;11.484;2024-02-28T03:36:19;25.83;;;13.33;;
43664;SDS011;29263;48.172;11.484;2024-02-28T03:38:45;25.67;;;13.60;;
43664;SDS011;29263;48.172;11.484;2024-02-28T03:41:10;24.83;;;13.77;;
43664;SDS011;29263;48.172;11.484;2024-02-28T03:43:36;22.23;;;13.23;;
43664;SDS011;29263;48.172;11.484;2024-02-28T03:46:01;30.20;;;13.97;;
43664;SDS011;29263;48.172;11.484;2024-02-28T03:48:27;26.33;;;14.30;;
43664;SDS011;29263;48.172;11.484;2024-02-28T03:50:53;23.07;;;14.17;;
43664;SDS011;29263;48.172;11.484;2024-02-28T03:53:18;23.23;;;13.67;;
43664;SDS011;29263;48.172;11.484;2024-02-28T03:55:44;27.93;;;14.43;;
43664;SDS011;29263;48.172;11.484;2024-02-28T03:58:10;26.73;;;14.20;;
43664;SDS011;29263;48.172;11.484;2024-02-28T04:00:36;23.67;;;13.53;;
43664;SDS011;29263;48.172;11.484;2024-02-28T04:03:02;24.87;;;13.73;;
43664;SDS011;29263;48.172;11.484;2024-02-28T04:05:28;25.47;;;14.40;;
43664;SDS011;29263;48.172;11.484;2024-02-28T04:07:54;29.03;;;14.50;;
43664;SDS011;29263;48.172;11.484;2024-02-28T04:10:20;26.53;;;14.37;;
43664;SDS011;29263;48.172;11.484;2024-02-28T04:12:46;24.97;;;13.23;;
43664;SDS011;29263;48.172;11.484;2024-02-28T04:15:12;23.97;;;13.83;;
43664;SDS011;29263;48.172;11.484;2024-02-28T04:17:38;28.07;;;15.03;;
43664;SDS011;29263;48.172;11.484;2024-02-28T04:20:08;27.13;;;13.60;;
43664;SDS011;29263;48.172;11.484;2024-02-28T04:22:34;26.57;;;14.63;;
43664;SDS011;29263;48.172;11.484;2024-02-28T04:25:00;28.63;;;15.83;;
43664;SDS011;29263;48.172;11.484;2024-02-28T04:27:26;26.90;;;13.30;;
43664;SDS011;29263;48.172;11.484;2024-02-28T04:29:51;26.10;;;13.53;;
43664;SDS011;29263;48.172;11.484;2024-02-28T04:32:17;28.30;;;14.40;;
43664;SDS011;29263;48.172;11.484;2024-02-28T04:34:43;24.53;;;13.60;;
43664;SDS011;29263;48.172;11.484;2024-02-28T04:37:08;28.77;;;14.90;;
43664;SDS011;29263;48.172;11.484;2024-02-28T04:39:34;23.67;;;13.93;;
43664;SDS011;29263;48.172;11.484;2024-02-28T04:41:59;24.77;;;14.97;;
43664;SDS011;29263;48.172;11.484;2024-02-28T04:44:25;26.53;;;14.67;;
43664;SDS011;29263;48.172;11.484;2024-02-28T04:46:51;25.73;;;14.83;;
43664;SDS011;29263;48.172;11.484;2024-02-28T04:49:16;26.37;;;13.40;;
43664;SDS011;29263;48.172;11.484;2024-02-28T04:51:42;25.47;;;14.57;;
43664;SDS011;29263;48.172;11.484;2024-02-28T04:54:07;27.20;;;14.03;;
43664;SDS011;29263;48.172;11.484;2024-02-28T04:56:39;23.80;;;13.57;;
43664;SDS011;29263;48.172;11.484;2024-02-28T04:59:08;27.27;;;13.77;;
43664;SDS011;29263;48.172;11.484;2024-02-28T05:01:35;25.70;;;13.53;;
43664;SDS011;29263;48.172;11.484;2024-02-28T05:04:04;25.67;;;13.73;;
43664;SDS011;29263;48.172;11.484;2024-02-28T05:06:32;25.33;;;14.55;;
43664;SDS011;29263;48.172;11.484;2024-02-28T05:08:58;24.10;;;13.17;;
43664;SDS011;29263;48.172;11.484;2024-02-28T05:11:24;29.07;;;14.80;;
43664;SDS011;29263;48.172;11.484;2024-02-28T05:13:50;24.33;;;13.70;;
43664;SDS011;29263;48.172;11.484;2024-02-28T05:16:15;24.50;;;13.60;;
43664;SDS011;29263;48.172;11.484;2024-02-28T05:18:43;25.93;;;13.87;;
43664;SDS011;29263;48.172;11.484;2024-02-28T05:21:10;27.33;;;14.87;;
43664;SDS011;29263;48.172;11.484;2024-02-28T05:23:36;29.43;;;14.67;;
43664;SDS011;29263;48.172;11.484;2024-02-28T05:26:02;26.40;;;13.80;;
43664;SDS011;29263;48.172;11.484;2024-02-28T05:28:31;26.93;;;14.37;;
43664;SDS011;29263;48.172;11.484;2024-02-28T05:30:59;28.77;;;15.13;;
43664;SDS011;29263;48.172;11.484;2024-02-28T05:33:27;28.13;;;13.77;;
43664;SDS011;29263;48.172;11.484;2024-02-28T05:35:53;29.10;;;14.50;;
43664;SDS011;29263;48.172;11.484;2024-02-28T05:38:19;29.17;;;14.40;;
43664;SDS011;29263;48.172;11.484;2024-02-28T05:40:44;25.97;;;14.50;;
43664;SDS011;29263;48.172;11.484;2024-02-28T05:43:10;27.47;;;14.70;;
43664;SDS011;29263;48.172;11.484;2024-02-28T05:45:35;25.27;;;14.00;;
43664;SDS011;29263;48.172;11.484;2024-02-28T05:48:01;25.07;;;14.00;;
43664;SDS011;29263;48.172;11.484;2024-02-28T05:50:27;28.10;;;15.07;;
43664;SDS011;29263;48.172;11.484;2024-02-28T05:52:54;29.70;;;15.53;;
43664;SDS011;29263;48.172;11.484;2024-02-28T05:55:20;25.30;;;13.10;;
43664;SDS011;29263;48.172;11.484;2024-02-28T05:57:49;27.67;;;14.50;;
43664;SDS011;29263;48.172;11.484;2024-02-28T06:00:14;24.83;;;14.30;;
43664;SDS011;29263;48.172;11.484;2024-02-28T06:02:40;28.13;;;14.97;;
43664;SDS011;29263;48.172;11.484;2024-02-28T06:05:07;26.10;;;14.50;;
43664;SDS011;29263;48.172;11.484;2024-02-28T06:07:33;27.27;;;15.67;;
43664;SDS011;29263;48.172;11.484;2024-02-28T06:09:58;28.30;;;14.00;;
43664;SDS011;29263;48.172;11.484;2024-02-28T06:12:24;29.20;;;15.40;;
43664;SDS011;29263;48.172;11.484;2024-02-28T06:14:50;32.73;;;15.77;;
43664;SDS011;29263;48.172;11.484;2024-02-28T06:17:15;27.73;;;13.87;;
43664;SDS011;29263;48.172;11.484;2024-02-28T06:19:41;27.70;;;14.87;;
43664;SDS011;29263;48.172;11.484;2024-02-28T06:22:07;31.40;;;15.67;;
43664;SDS011;29263;48.172;11.484;2024-02-28T06:24:35;25.77;;;14.30;;
43664;SDS011;29263;48.172;11.484;2024-02-28T06:27:01;27.27;;;14.77;;
43664;SDS011;29263;48.172;11.484;2024-02-28T06:29:27;29.07;;;15.90;;
43664;SDS011;29263;48.172;11.484;2024-02-28T06:31:52;28.60;;;15.40;;
43664;SDS011;29263;48.172;11.484;2024-02-28T06:34:20;28.20;;;15.50;;
43664;SDS011;29263;48.172;11.484;2024-02-28T06:36:47;30.60;;;15.13;;
43664;SDS011;29263;48.172;11.484;2024-02-28T06:39:13;28.70;;;15.37;;
43664;SDS011;29263;48.172;11.484;2024-02-28T06:41:38;27.30;;;15.03;;
43664;SDS011;29263;48.172;11.484;2024-02-28T06:44:04;28.37;;;15.23;;
43664;SDS011;29263;48.172;11.484;2024-02-28T06:46:30;28.87;;;15.37;;
43664;SDS011;29263;48.172;11.484;2024-02-28T06:48:55;28.03;;;15.23;;
43664;SDS011;29263;48.172;11.484;2024-02-28T06:51:21;31.83;;;15.60;;
43664;SDS011;29263;48.172;11.484;2024-02-28T06:53:46;28.90;;;15.07;;
43664;SDS011;29263;48.172;11.484;2024-02-28T06:56:12;28.97;;;15.03;;
43664;SDS011;29263;48.172;11.484;2024-02-28T06:58:38;34.90;;;16.63;;
43664;SDS011;29263;48.172;11.484;2024-02-28T07:01:03;34.03;;;15.73;;
43664;SDS011;29263;48.172;11.484;2024-02-28T07:03:29;29.53;;;14.13;;
43664;SDS011;29263;48.172;11.484;2024-02-28T07:05:55;28.03;;;15.53;;
43664;SDS011;29263;48.172;11.484;2024-02-28T07:08:20;29.80;;;16.10;;
43664;SDS011;29263;48.172;11.484;2024-02-28T07:10:46;37.87;;;17.10;;
43664;SDS011;29263;48.172;11.484;2024-02-28T07:13:14;39.03;;;17.13;;
43664;SDS011;29263;48.172;11.484;2024-02-28T07:15:40;34.97;;;17.70;;
43664;SDS011;29263;48.172;11.484;2024-02-28T07:18:06;37.77;;;19.10;;
43664;SDS011;29263;48.172;11.484;2024-02-28T07:20:32;35.53;;;17.70;;
43664;SDS011;29263;48.172;11.484;2024-02-28T07:22:58;38.00;;;17.30;;
43664;SDS011;29263;48.172;11.484;2024-02-28T07:25:23;40.03;;;18.80;;
43664;SDS011;29263;48.172;11.484;2024-02-28T07:27:49;39.97;;;18.77;;
43664;SDS011;29263;48.172;11.484;2024-02-28T07:30:15;36.27;;;18.47;;
43664;SDS011;29263;48.172;11.484;2024-02-28T07:32:40;40.43;;;18.93;;
43664;SDS011;29263;48.172;11.484;2024-02-28T07:35:06;40.07;;;17.83;;
43664;SDS011;29263;48.172;11.484;2024-02-28T07:37:32;41.37;;;17.83;;
43664;SDS011;29263;48.172;11.484;2024-02-28T07:39:58;35.63;;;17.30;;
43664;SDS011;29263;48.172;11.484;2024-02-28T07:42:23;38.03;;;17.80;;
43664;SDS011;29263;48.172;11.484;2024-02-28T07:44:49;40.43;;;18.27;;
43664;SDS011;29263;48.172;11.484;2024-02-28T07:47:18;40.08;;;19.25;;
43664;SDS011;29263;48.172;11.484;2024-02-28T07:49:44;42.80;;;17.90;;
43664;SDS011;29263;48.172;11.484;2024-02-28T07:52:10;36.90;;;17.30;;
43664;SDS011;29263;48.172;11.484;2024-02-28T07:54:35;38.60;;;17.57;;
43664;SDS011;29263;48.172;11.484;2024-02-28T07:57:02;36.47;;;17.67;;
43664;SDS011;29263;48.172;11.484;2024-02-28T07:59:27;36.10;;;17.03;;
43664;SDS011;29263;48.172;11.484;2024-02-28T08:01:53;37.70;;;18.57;;
43664;SDS011;29263;48.172;11.484;2024-02-28T08:04:18;38.93;;;19.37;;
43664;SDS011;29263;48.172;11.484;2024-02-28T08:06:44;36.13;;;17.10;;
43664;SDS011;29263;48.172;11.484;2024-02-28T08:09:09;39.83;;;18.97;;
43664;SDS011;29263;48.172;11.484;2024-02-28T08:11:36;39.83;;;20.00;;
43664;SDS011;29263;48.172;11.484;2024-02-28T08:14:02;38.13;;;18.80;;
43664;SDS011;29263;48.172;11.484;2024-02-28T08:16:28;38.03;;;17.60;;
43664;SDS011;29263;48.172;11.484;2024-02-28T08:18:54;40.70;;;18.13;;
43664;SDS011;29263;48.172;11.484;2024-02-28T08:21:19;38.10;;;18.33;;
43664;SDS011;29263;48.172;11.484;2024-02-28T08:23:45;36.83;;;17.17;;
43664;SDS011;29263;48.172;11.484;2024-02-28T08:26:10;36.73;;;17.07;;
43664;SDS011;29263;48.172;11.484;2024-02-28T08:28:36;42.50;;;17.43;;
43664;SDS011;29263;48.172;11.484;2024-02-28T08:31:02;35.90;;;16.77;;
43664;SDS011;29263;48.172;11.484;2024-02-28T08:33:28;33.33;;;17.43;;
43664;SDS011;29263;48.172;11.484;2024-02-28T08:35:53;33.77;;;18.20;;
43664;SDS011;29263;48.172;11.484;2024-02-28T08:38:19;41.63;;;19.70;;
43664;SDS011;29263;48.172;11.484;2024-02-28T08:40:45;36.53;;;18.27;;
43664;SDS011;29263;48.172;11.484;2024-02-28T08:43:11;38.50;;;18.03;;
43664;SDS011;29263;48.172;11.484;2024-02-28T08:45:37;41.13;;;19.03;;
43664;SDS011;29263;48.172;11.484;2024-02-28T08:48:02;40.37;;;18.27;;
43664;SDS011;29263;48.172;11.484;2024-02-28T08:50:28;37.50;;;17.93;;
43664;SDS011;29263;48.172;11.484;2024-02-28T08:52:54;37.80;;;17.67;;
43664;SDS011;29263;48.172;11.484;2024-02-28T08:55:20;35.03;;;17.33;;
43664;SDS011;29263;48.172;11.484;2024-02-28T08:57:46;39.37;;;19.43;;
43664;SDS011;29263;48.172;11.484;2024-02-28T09:00:13;33.50;;;16.93;;
43664;SDS011;29263;48.172;11.484;2024-02-28T09:02:40;37.87;;;18.20;;
43664;SDS011;29263;48.172;11.484;2024-02-28T09:05:06;36.03;;;18.03;;
43664;SDS011;29263;48.172;11.484;2024-02-28T09:07:34;37.33;;;17.73;;
43664;SDS011;29263;48.172;11.484;2024-02-28T09:10:03;40.20;;;17.70;;
43664;SDS011;29263;48.172;11.484;2024-02-28T09:12:29;35.80;;;17.92;;
43664;SDS011;29263;48.172;11.484;2024-02-28T09:14:55;38.77;;;19.20;;
43664;SDS011;29263;48.172;11.484;2024-02-28T09:17:22;39.67;;;18.50;;
43664;SDS011;29263;48.172;11.484;2024-02-28T09:19:48;39.47;;;18.37;;
43664;SDS011;29263;48.172;11.484;2024-02-28T09:22:14;41.00;;;19.77;;
43664;SDS011;29263;48.172;11.484;2024-02-28T09:24:41;42.43;;;19.37;;
43664;SDS011;29263;48.172;11.484;2024-02-28T09:27:07;40.10;;;19.23;;
43664;SDS011;29263;48.172;11.484;2024-02-28T09:29:33;44.20;;;20.20;;
43664;SDS011;29263;48.172;11.484;2024-02-28T09:31:58;43.17;;;18.60;;
43664;SDS011;29263;48.172;11.484;2024-02-28T09:34:24;41.77;;;18.90;;
43664;SDS011;29263;48.172;11.484;2024-02-28T09:36:50;36.37;;;17.23;;
43664;SDS011;29263;48.172;11.484;2024-02-28T09:39:15;41.33;;;19.10;;
43664;SDS011;29263;48.172;11.484;2024-02-28T09:41:42;40.63;;;19.17;;
43664;SDS011;29263;48.172;11.484;2024-02-28T09:44:07;38.77;;;18.73;;
43664;SDS011;29263;48.172;11.484;2024-02-28T09:46:33;38.47;;;18.10;;
43664;SDS011;29263;48.172;11.484;2024-02-28T09:49:04;41.20;;;18.30;;
43664;SDS011;29263;48.172;11.484;2024-02-28T09:51:32;37.73;;;19.83;;
43664;SDS011;29263;48.172;11.484;2024-02-28T09:54:05;40.53;;;19.50;;
43664;SDS011;29263;48.172;11.484;2024-02-28T09:56:31;37.72;;;18.25;;
43664;SDS011;29263;48.172;11.484;2024-02-28T09:58:57;36.63;;;18.53;;
43664;SDS011;29263;48.172;11.484;2024-02-28T10:01:25;35.53;;;17.93;;
43664;SDS011;29263;48.172;11.484;2024-02-28T10:03:51;35.20;;;17.07;;
43664;SDS011;29263;48.172;11.484;2024-02-28T10:06:18;41.47;;;18.83;;
43664;SDS011;29263;48.172;11.484;2024-02-28T10:08:45;41.70;;;18.53;;
43664;SDS011;29263;48.172;11.484;2024-02-28T10:11:20;39.70;;;19.30;;
43664;SDS011;29263;48.172;11.484;2024-02-28T10:13:47;36.53;;;17.47;;
43664;SDS011;29263;48.172;11.484;2024-02-28T10:16:13;36.80;;;17.77;;
43664;SDS011;29263;48.172;11.484;2024-02-28T10:18:40;36.17;;;18.87;;
43664;SDS011;29263;48.172;11.484;2024-02-28T10:21:07;36.80;;;17.73;;
43664;SDS011;29263;48.172;11.484;2024-02-28T10:23:33;32.77;;;16.13;;
43664;SDS011;29263;48.172;11.484;2024-02-28T10:26:00;39.50;;;19.20;;
43664;SDS011;29263;48.172;11.484;2024-02-28T10:28:26;38.83;;;17.60;;
43664;SDS011;29263;48.172;11.484;2024-02-28T10:30:52;40.27;;;18.13;;
43664;SDS011;29263;48.172;11.484;2024-02-28T10:33:19;35.43;;;17.63;;
43664;SDS011;29263;48.172;11.484;2024-02-28T10:35:45;38.20;;;18.73;;
43664;SDS011;29263;48.172;11.484;2024-02-28T10:38:14;37.20;;;17.98;;
43664;SDS011;29263;48.172;11.484;2024-02-28T10:40:40;36.80;;;18.47;;
43664;SDS011;29263;48.172;11.484;2024-02-28T10:43:07;35.93;;;18.40;;
43664;SDS011;29263;48.172;11.484;2024-02-28T10:45:35;35.37;;;17.67;;
43664;SDS011;29263;48.172;11.484;2024-02-28T10:48:03;32.67;;;17.23;;
43664;SDS011;29263;48.172;11.484;2024-02-28T10:50:30;37.17;;;18.27;;
43664;SDS011;29263;48.172;11.484;2024-02-28T10:52:57;31.23;;;16.93;;
43664;SDS011;29263;48.172;11.484;2024-02-28T10:55:27;36.90;;;18.07;;
43664;SDS011;29263;48.172;11.484;2024-02-28T10:58:02;34.70;;;18.93;;
43664;SDS011;29263;48.172;11.484;2024-02-28T11:00:35;36.67;;;17.67;;
43664;SDS011;29263;48.172;11.484;2024-02-28T11:03:13;36.87;;;17.80;;
43664;SDS011;29263;48.172;11.484;2024-02-28T11:05:41;40.28;;;18.67;;
43664;SDS011;29263;48.172;11.484;2024-02-28T11:08:11;37.47;;;17.13;;
43664;SDS011;29263;48.172;11.484;2024-02-28T11:10:45;38.97;;;17.53;;
43664;SDS011;29263;48.172;11.484;2024-02-28T11:13:23;40.73;;;18.10;;
43664;SDS011;29263;48.172;11.484;2024-02-28T11:15:49;36.67;;;18.97;;
43664;SDS011;29263;48.172;11.484;2024-02-28T11:18:15;38.17;;;17.53;;
43664;SDS011;29263;48.172;11.484;2024-02-28T11:20:41;32.83;;;16.57;;
43664;SDS011;29263;48.172;11.484;2024-02-28T11:23:09;37.73;;;16.73;;
43664;SDS011;29263;48.172;11.484;2024-02-28T11:25:35;39.10;;;17.70;;
43664;SDS011;29263;48.172;11.484;2024-02-28T11:28:01;35.50;;;18.63;;
43664;SDS011;29263;48.172;11.484;2024-02-28T11:30:26;36.47;;;18.20;;
43664;SDS011;29263;48.172;11.484;2024-02-28T11:32:52;33.73;;;17.23;;
43664;SDS011;29263;48.172;11.484;2024-02-28T11:35:19;38.67;;;18.73;;
43664;SDS011;29263;48.172;11.484;2024-02-28T11:37:45;40.23;;;19.37;;
43664;SDS011;29263;48.172;11.484;2024-02-28T11:40:14;34.05;;;16.73;;
43664;SDS011;29263;48.172;11.484;2024-02-28T11:42:40;38.47;;;19.13;;
43664;SDS011;29263;48.172;11.484;2024-02-28T11:45:05;39.17;;;18.27;;
43664;SDS011;29263;48.172;11.484;2024-02-28T11:47:35;36.47;;;17.83;;
43664;SDS011;29263;48.172;11.484;2024-02-28T11:50:01;34.70;;;17.23;;
43664;SDS011;29263;48.172;11.484;2024-02-28T11:52:30;40.33;;;18.13;;
43664;SDS011;29263;48.172;11.484;2024-02-28T11:54:56;37.43;;;18.00;;
43664;SDS011;29263;48.172;11.484;2024-02-28T11:57:22;33.03;;;17.87;;
43664;SDS011;29263;48.172;11.484;2024-02-28T11:59:48;36.53;;;19.10;;
43664;SDS011;29263;48.172;11.484;2024-02-28T12:02:14;37.37;;;18.20;;
43664;SDS011;29263;48.172;11.484;2024-02-28T12:04:43;37.63;;;17.87;;
43664;SDS011;29263;48.172;11.484;2024-02-28T12:09:36;35.87;;;17.17;;
43664;SDS011;29263;48.172;11.484;2024-02-28T12:12:02;29.20;;;16.53;;
43664;SDS011;29263;48.172;11.484;2024-02-28T12:14:36;36.38;;;17.27;;
43664;SDS011;29263;48.172;11.484;2024-02-28T12:17:03;31.93;;;17.13;;
43664;SDS011;29263;48.172;11.484;2024-02-28T12:19:29;33.20;;;16.80;;
43664;SDS011;29263;48.172;11.484;2024-02-28T12:21:55;36.80;;;18.40;;
43664;SDS011;29263;48.172;11.484;2024-02-28T12:24:20;32.60;;;17.80;;
43664;SDS011;29263;48.172;11.484;2024-02-28T12:26:46;37.40;;;19.00;;
43664;SDS011;29263;48.172;11.484;2024-02-28T12:29:12;34.97;;;17.67;;
43664;SDS011;29263;48.172;11.484;2024-02-28T12:31:38;35.53;;;16.63;;
43664;SDS011;29263;48.172;11.484;2024-02-28T12:34:04;34.97;;;16.60;;
43664;SDS011;29263;48.172;11.484;2024-02-28T12:36:30;36.60;;;17.43;;
43664;SDS011;29263;48.172;11.484;2024-02-28T12:38:56;33.63;;;17.23;;
43664;SDS011;29263;48.172;11.484;2024-02-28T12:41:23;31.33;;;16.60;;
43664;SDS011;29263;48.172;11.484;2024-02-28T12:43:49;34.00;;;16.83;;
43664;SDS011;29263;48.172;11.484;2024-02-28T12:46:15;34.13;;;16.10;;
43664;SDS011;29263;48.172;11.484;2024-02-28T12:48:40;33.60;;;16.47;;
43664;SDS011;29263;48.172;11.484;2024-02-28T12:51:06;29.43;;;15.20;;
43664;SDS011;29263;48.172;11.484;2024-02-28T12:53:35;31.67;;;16.42;;
43664;SDS011;29263;48.172;11.484;2024-02-28T12:56:01;32.07;;;16.60;;
43664;SDS011;29263;48.172;11.484;2024-02-28T12:58:27;36.47;;;17.00;;
43664;SDS011;29263;48.172;11.484;2024-02-28T13:00:53;32.07;;;16.93;;
43664;SDS011;29263;48.172;11.484;2024-02-28T13:03:18;29.57;;;15.83;;
43664;SDS011;29263;48.172;11.484;2024-02-28T13:05:44;33.97;;;17.53;;
43664;SDS011;29263;48.172;11.484;2024-02-28T13:08:10;30.30;;;15.27;;
43664;SDS011;29263;48.172;11.484;2024-02-28T13:10:36;31.50;;;16.40;;
43664;SDS011;29263;48.172;11.484;2024-02-28T13:13:06;30.53;;;16.57;;
43664;SDS011;29263;48.172;11.484;2024-02-28T13:15:32;28.43;;;15.00;;
43664;SDS011;29263;48.172;11.484;2024-02-28T13:17:59;29.43;;;15.30;;
43664;SDS011;29263;48.172;11.484;2024-02-28T13:20:26;31.27;;;16.97;;
43664;SDS011;29263;48.172;11.484;2024-02-28T13:22:52;30.40;;;15.73;;
43664;SDS011;29263;48.172;11.484;2024-02-28T13:25:18;28.40;;;15.20;;
43664;SDS011;29263;48.172;11.484;2024-02-28T13:27:45;35.07;;;16.03;;
43664;SDS011;29263;48.172;11.484;2024-02-28T13:30:11;32.23;;;15.90;;
43664;SDS011;29263;48.172;11.484;2024-02-28T13:32:38;31.37;;;17.00;;
43664;SDS011;29263;48.172;11.484;2024-02-28T13:35:04;31.30;;;15.50;;
43664;SDS011;29263;48.172;11.484;2024-02-28T13:37:30;32.90;;;16.67;;
43664;SDS011;29263;48.172;11.484;2024-02-28T13:39:57;30.77;;;15.73;;
43664;SDS011;29263;48.172;11.484;2024-02-28T13:42:23;28.13;;;15.67;;
43664;SDS011;29263;48.172;11.484;2024-02-28T13:44:49;30.63;;;15.60;;
43664;SDS011;29263;48.172;11.484;2024-02-28T13:47:16;32.23;;;16.43;;
43664;SDS011;29263;48.172;11.484;2024-02-28T13:49:41;31.27;;;15.83;;
43664;SDS011;29263;48.172;11.484;2024-02-28T13:52:07;34.60;;;16.13;;
43664;SDS011;29263;48.172;11.484;2024-02-28T13:54:33;34.03;;;17.07;;
43664;SDS011;29263;48.172;11.484;2024-02-28T13:56:59;28.00;;;15.17;;
43664;SDS011;29263;48.172;11.484;2024-02-28T13:59:26;32.83;;;17.07;;
43664;SDS011;29263;48.172;11.484;2024-02-28T14:01:52;32.20;;;15.47;;
43664;SDS011;29263;48.172;11.484;2024-02-28T14:04:17;32.60;;;17.43;;
43664;SDS011;29263;48.172;11.484;2024-02-28T14:06:44;33.57;;;16.40;;